SBOSBO BAH / OBBI
Speedbird OnlineSpeedbird Online BAH / OBBI

Bahrain International Airport
10:10 35°C

Location Bahrain, Bahrain
Latitude: 26.27079963684082
Longitude: 50.63359832763672
Web Airport Website | Wikipedia
Altitude 2 Meter / 6 Feet
Distance 5,055 KM / 3,141 Miles
from London.
Time Zone UTC +3 hours (Asia/Bahrain)
Codes IATA: BAH
ICAO: OBBI
Currency £1 equals BHD 0.43
Runways
RunwayLength (m)Surface
12L3956Asphalt
12R2530Asphalt
30L2530Asphalt
30R3956Asphalt
Radio
TypeDescriptionFrequency
APPAPP127.85
ATISATIS127.2
GNDGND121.675
OPSATOC32.175
TWRTWR118.5
Live ATC
METAR OBBI 060700Z 29011KT 260V320 CAVOK 35/16 Q1009 NOSIG
TAF TAF OBBI 060500Z 0606/0712 35014KT CAVOK
Weather As Of 06 Oct 2022 10:10
Description Clear sky
Wind 20 km/h from West (290°)
Cloud Cover 0%
Precipitation Rain: none, Snow: none
Sunrise 05:31
Sunset 17:19
Lounges The Pearl Lounge , New Terminal
Rotations During the last 90 days there were
35 flights from LHR
39 flights to LHR


© 2017-2022 Speedbird Online